Página principal
METAR-TAF:

METAR-TAF

Aeroportos :

Hanói, Vietname

Aeroporto Internacional de Noi Bai

latitude: 21-01N, longitude: 105-48E, altura: 6 m

Observação actual do tempo

O boletim foi feito há 39 minutos, às 07:30 UTC
Vento 2 kt com direcção variável
Temperatura 34°C
Humidade 63%
Pressão 1003 hPa
Visibilidade 10 km ou mais
Nuvens dispersasa uma altura de 2500 ft

METAR: VVNB 210730Z VRB02KT 9999 SCT025 34/26 Q1003 NOSIG

Hora: 15:09 (08:09 UTC)

Previsão

O boletim foi feito há 3 horas e 9 minutos, às 05:00 UTC
Previsão válida de 21 às 06 UTC a 22 às 06 UTC
Vento 5 kt de su-sudeste
Visibilidade 10 km ou mais
Poucas nuvensa uma altura de 2000 ft
Tornando-se
de 21 às 21 UTC a 21 às 22 UTC
Visibilidade: 4000 m
neblina
Tornando-se
de 22 às 00 UTC a 22 às 01 UTC
Visibilidade: 8000 m

TAF: VVNB 210500Z 2106/2206 15005KT 9999 FEW020 BECMG 2121/2122 4000 BR BECMG 2200/2201 8000 NSW

Observações e previsões do tempo de mais de 4000 aeroportos (mensagens METAR e TAF).

As estações disponíveis são os pontos amarelos e vermelhos sobre o mapa.

Mova o rato sobre o mapa para ver o nome da estação.

Depois clique no ponto para visualizar as observações e previsões meteorológicas.

Para alterar o mapa : clique nos botões verdes com uma cruz preta para aumentar o zoom; no botão verde com uma pitada de zoom; ou nas setas verdes para mapas adjacentes.


METAR-TAF: